Time;durP1;ratioP1;P1;durP2;ratioP2;P2;SDS_P1;SDS_P2;PMS_P1;PMS_P2;Temp;Humidity;BMP_temperature;BMP_pressure;BME280_temperature;BME280_humidity;BME280_pressure;Samples;Min_cycle;Max_cycle;Signal;HPM_P1;HPM_P2
2023/10/20 00:01:50;;;;;;;22.10;3.50;;;25.40;99.90;;;;;;5074849;28;20348;-69
2023/10/20 00:04:16;;;;;;;;;;;25.30;99.90;;;;;;5094059;28;20062;-69
2023/10/20 00:06:42;;;;;;;31.45;4.40;;;25.40;99.90;;;;;;5074912;28;19926;-69
2023/10/20 00:09:14;;;;;;;44.20;4.78;;;25.30;99.90;;;;;;5093475;28;20020;-69
2023/10/20 00:11:42;;;;;;;19.50;3.67;;;25.30;99.90;;;;;;5093351;28;20024;-69
2023/10/20 00:14:08;;;;;;;30.77;4.05;;;25.40;99.90;;;;;;5093026;28;20032;-69
2023/10/20 00:16:34;;;;;;;31.15;4.63;;;25.40;99.90;;;;;;5093125;28;20029;-69
2023/10/20 00:19:03;;;;;;;35.05;4.22;;;25.30;99.90;;;;;;5093131;28;20483;-69
2023/10/20 00:21:29;;;;;;;33.95;4.20;;;25.50;99.90;;;;;;5092733;28;20118;-69
2023/10/20 00:23:56;;;;;;;32.63;3.97;;;25.40;99.90;;;;;;5093290;28;20043;-69
2023/10/20 00:26:22;;;;;;;37.63;4.63;;;25.40;99.90;;;;;;5074457;28;20026;-69
2023/10/20 00:28:48;;;;;;;40.83;3.78;;;25.40;99.90;;;;;;5092191;28;20028;-70
2023/10/20 00:31:16;;;;;;;31.63;3.80;;;25.40;99.90;;;;;;5092722;28;20340;-69
2023/10/20 00:33:43;;;;;;;30.23;3.78;;;25.30;99.90;;;;;;5074448;28;20089;-69
2023/10/20 00:36:09;;;;;;;35.45;4.00;;;25.30;99.90;;;;;;5092706;28;20043;-71
2023/10/20 00:38:35;;;;;;;36.40;4.90;;;25.40;99.90;;;;;;5092613;28;20027;-69
2023/10/20 00:41:02;;;;;;;43.50;4.60;;;25.30;99.90;;;;;;5092429;28;20067;-69
2023/10/20 00:43:35;;;;;;;41.80;4.72;;;25.30;99.90;;;;;;5092515;28;20090;-70
2023/10/20 00:46:04;;;;;;;37.92;3.67;;;25.30;99.90;;;;;;5092359;28;20042;-71
2023/10/20 00:48:31;;;;;;;35.95;4.38;;;25.30;99.90;;;;;;5092280;28;20496;-70
2023/10/20 00:50:59;;;;;;;37.55;4.38;;;25.40;99.90;;;;;;5092386;28;20028;-70
2023/10/20 00:53:28;;;;;;;22.40;4.07;;;25.40;99.90;;;;;;5073978;28;20031;-69
2023/10/20 00:55:57;;;;;;;28.45;4.00;;;25.40;99.90;;;;;;5092357;28;20021;-69
2023/10/20 00:58:27;;;;;;;44.08;4.00;;;25.40;99.90;;;;;;5092052;28;20028;-69
2023/10/20 01:00:54;;;;;;;37.50;3.95;;;25.30;99.90;;;;;;5092388;28;20016;-68
2023/10/20 01:03:20;;;;;;;;;;;25.30;99.90;;;;;;5092786;28;20076;-68
2023/10/20 01:05:46;;;;;;;;;;;25.30;99.90;;;;;;5092719;28;19904;-70
2023/10/20 01:08:13;;;;;;;;;;;25.30;99.90;;;;;;5092730;28;19904;-70
2023/10/20 01:10:39;;;;;;;39.53;5.10;;;25.30;99.90;;;;;;5092220;28;20006;-70
2023/10/20 01:13:06;;;;;;;28.60;4.13;;;25.20;99.90;;;;;;5092216;28;20020;-71
2023/10/20 01:15:32;;;;;;;;;;;25.20;99.90;;;;;;5092415;28;20464;-69
2023/10/20 01:17:59;;;;;;;;;;;25.20;99.90;;;;;;5092045;28;19912;-69
2023/10/20 01:20:25;;;;;;;42.60;4.32;;;25.30;99.90;;;;;;5091875;28;19994;-69
2023/10/20 01:22:51;;;;;;;25.40;3.65;;;25.20;99.90;;;;;;5091716;28;20038;-69
2023/10/20 01:25:17;;;;;;;39.55;3.80;;;25.30;99.90;;;;;;5073582;28;20478;-70
2023/10/20 01:27:43;;;;;;;32.67;4.53;;;25.20;99.90;;;;;;5073715;28;20108;-69
2023/10/20 01:30:12;;;;;;;29.80;3.60;;;25.20;99.90;;;;;;5073366;28;20118;-68
2023/10/20 01:32:40;;;;;;;26.92;3.85;;;25.30;99.90;;;;;;5091614;28;20063;-69
2023/10/20 01:35:08;;;;;;;34.10;4.57;;;25.20;99.90;;;;;;5091735;28;20016;-68
2023/10/20 01:37:34;;;;;;;34.15;4.25;;;25.30;99.90;;;;;;5091430;28;20491;-68
2023/10/20 01:40:00;;;;;;;28.02;3.90;;;25.30;99.90;;;;;;5091342;28;20463;-69
2023/10/20 01:42:27;;;;;;;28.70;3.78;;;25.30;99.90;;;;;;5091395;28;20055;-69
2023/10/20 01:44:53;;;;;;;36.17;4.78;;;25.30;99.90;;;;;;5091439;28;20464;-68
2023/10/20 01:47:19;;;;;;;33.08;4.10;;;25.20;99.90;;;;;;5091337;28;20476;-68
2023/10/20 01:49:45;;;;;;;24.65;4.40;;;25.20;99.90;;;;;;5072980;28;20063;-69
2023/10/20 01:52:11;;;;;;;33.00;3.70;;;25.10;99.90;;;;;;5091295;28;20028;-69
2023/10/20 01:54:37;;;;;;;31.52;4.22;;;25.10;99.90;;;;;;5091224;28;20020;-69
2023/10/20 01:57:03;;;;;;;25.00;4.18;;;25.00;99.90;;;;;;5091340;28;20543;-69
2023/10/20 01:59:29;;;;;;;25.58;4.15;;;25.10;99.90;;;;;;5073300;28;20368;-69
2023/10/20 02:01:55;;;;;;;35.90;4.13;;;25.10;99.90;;;;;;5090987;28;20467;-68
2023/10/20 02:04:21;;;;;;;27.58;4.05;;;25.10;99.90;;;;;;5091177;28;20024;-69
2023/10/20 02:06:48;;;;;;;27.55;4.05;;;25.00;99.90;;;;;;5091330;28;20125;-69
2023/10/20 02:09:14;;;;;;;29.85;3.90;;;25.00;99.90;;;;;;5091170;28;20367;-69
2023/10/20 02:11:40;;;;;;;29.63;4.10;;;25.10;99.90;;;;;;5091066;28;20024;-69
2023/10/20 02:14:08;;;;;;;29.70;4.15;;;25.10;99.90;;;;;;5091398;28;20052;-69
2023/10/20 02:16:34;;;;;;;26.08;4.55;;;25.10;99.90;;;;;;5091114;28;20028;-69
2023/10/20 02:19:00;;;;;;;31.73;4.88;;;25.00;99.90;;;;;;5091097;28;20103;-69
2023/10/20 02:21:26;;;;;;;36.47;5.03;;;25.00;99.90;;;;;;5090943;28;20107;-69
2023/10/20 02:23:52;;;;;;;27.98;3.75;;;25.00;99.90;;;;;;5072645;28;20058;-68
2023/10/20 02:26:19;;;;;;;21.98;4.05;;;25.00;99.90;;;;;;5090831;28;20418;-69
2023/10/20 02:28:45;;;;;;;29.20;4.50;;;24.90;99.90;;;;;;5090795;28;20051;-69
2023/10/20 02:31:17;;;;;;;;;;;24.90;99.90;;;;;;5091426;28;20465;-69
2023/10/20 02:33:44;;;;;;;22.38;3.88;;;24.90;99.90;;;;;;5090821;28;19912;-69
2023/10/20 02:36:14;;;;;;;;;;;24.80;99.90;;;;;;5090728;28;20020;-70
2023/10/20 02:38:41;;;;;;;25.10;3.47;;;24.70;99.90;;;;;;5090481;28;19957;-70
2023/10/20 02:41:07;;;;;;;24.95;4.32;;;24.70;99.90;;;;;;5090154;28;20040;-68
2023/10/20 02:43:36;;;;;;;28.27;4.00;;;24.60;99.90;;;;;;5072006;28;20510;-68
2023/10/20 02:46:02;;;;;;;23.35;3.65;;;24.60;99.90;;;;;;5090355;28;20054;-69
2023/10/20 02:48:29;;;;;;;21.77;3.33;;;24.60;99.90;;;;;;5090880;28;20029;-69
2023/10/20 02:50:55;;;;;;;23.20;3.83;;;24.50;99.90;;;;;;5091280;28;20024;-69
2023/10/20 02:53:21;;;;;;;34.65;4.32;;;24.50;99.90;;;;;;5094478;28;20133;-69
2023/10/20 02:55:47;;;;;;;24.15;4.18;;;24.50;99.90;;;;;;5094503;28;20016;-70
2023/10/20 02:58:14;;;;;;;29.13;3.92;;;24.50;99.90;;;;;;5075880;28;20035;-69
2023/10/20 03:00:45;;;;;;;24.13;3.75;;;24.50;99.90;;;;;;5094286;28;20047;-69
2023/10/20 03:03:12;;;;;;;35.05;4.78;;;24.50;99.90;;;;;;5075664;28;20044;-70
2023/10/20 03:05:40;;;;;;;25.17;3.92;;;24.40;99.90;;;;;;5094325;28;20127;-70
2023/10/20 03:08:06;;;;;;;33.25;4.38;;;24.40;99.90;;;;;;5094759;28;20047;-69
2023/10/20 03:10:32;;;;;;;23.92;4.05;;;24.40;99.90;;;;;;5094419;28;20047;-68
2023/10/20 03:12:58;;;;;;;30.83;3.88;;;24.40;99.90;;;;;;5076262;28;20119;-68
2023/10/20 03:15:24;;;;;;;30.90;4.97;;;24.30;99.90;;;;;;5075669;28;20035;-68
2023/10/20 03:17:51;;;;;;;30.00;4.90;;;24.30;99.90;;;;;;5093964;28;20040;-69
2023/10/20 03:20:24;;;;;;;29.80;5.40;;;24.30;99.90;;;;;;5094058;28;20055;-69
2023/10/20 03:22:51;;;;;;;28.75;4.28;;;24.30;99.90;;;;;;5094575;28;20036;-69
2023/10/20 03:25:18;;;;;;;30.60;4.60;;;24.20;99.90;;;;;;5094209;28;20024;-69
2023/10/20 03:27:44;;;;;;;33.97;4.32;;;24.30;99.90;;;;;;5094638;28;20451;-69
2023/10/20 03:30:10;;;;;;;30.67;4.15;;;24.30;99.90;;;;;;5076097;28;20054;-70
2023/10/20 03:32:36;;;;;;;23.98;4.32;;;24.20;99.90;;;;;;5094213;28;20078;-68
2023/10/20 03:35:03;;;;;;;31.73;4.72;;;24.20;99.90;;;;;;5094850;28;20076;-69
2023/10/20 03:37:29;;;;;;;33.42;4.10;;;24.20;99.90;;;;;;5094629;28;20028;-69
2023/10/20 03:39:55;;;;;;;30.33;5.00;;;24.20;99.90;;;;;;5095340;28;20438;-69
2023/10/20 03:42:21;;;;;;;25.73;4.03;;;24.20;99.90;;;;;;5095573;28;20032;-69
2023/10/20 03:44:48;;;;;;;27.92;5.45;;;24.10;99.90;;;;;;5076791;28;20028;-68
2023/10/20 03:47:16;;;;;;;35.30;4.93;;;24.20;99.90;;;;;;5076800;28;20024;-68
2023/10/20 03:49:43;;;;;;;38.58;5.07;;;24.10;99.90;;;;;;5076703;28;20024;-68
2023/10/20 03:52:12;;;;;;;37.72;5.07;;;24.10;99.90;;;;;;5095122;28;20031;-69
2023/10/20 03:54:38;;;;;;;32.80;4.80;;;24.10;99.90;;;;;;5110881;28;20320;-68
2023/10/20 03:57:05;;;;;;;28.35;4.45;;;24.10;99.90;;;;;;5095363;28;20373;-68
2023/10/20 03:59:31;;;;;;;46.47;5.35;;;24.20;99.90;;;;;;5094912;28;20058;-70
2023/10/20 04:01:57;;;;;;;;;;;24.10;99.90;;;;;;5094792;28;20472;-69
2023/10/20 04:04:23;;;;;;;35.85;4.97;;;24.10;99.90;;;;;;5094755;28;19999;-68
2023/10/20 04:06:49;;;;;;;37.50;5.38;;;24.10;99.90;;;;;;5094811;28;20026;-68
2023/10/20 04:09:19;;;;;;;34.00;5.50;;;24.00;99.90;;;;;;5094767;28;20478;-69
2023/10/20 04:11:45;;;;;;;42.15;5.20;;;24.10;99.90;;;;;;5094696;28;20030;-68
2023/10/20 04:14:12;;;;;;;40.95;5.60;;;24.00;99.90;;;;;;5076285;28;20084;-69
2023/10/20 04:16:41;;;;;;;42.35;5.75;;;24.00;99.90;;;;;;5094846;28;20094;-68
2023/10/20 04:19:12;;;;;;;39.17;4.97;;;24.00;99.90;;;;;;5076699;28;20052;-69
2023/10/20 04:21:40;;;;;;;36.85;5.80;;;24.00;99.90;;;;;;5095495;28;20110;-69
2023/10/20 04:24:07;;;;;;;29.35;4.90;;;24.00;99.90;;;;;;5076729;28;20503;-69
2023/10/20 04:26:35;;;;;;;34.45;5.53;;;24.00;99.90;;;;;;5094903;28;20024;-68
2023/10/20 04:51:08;;;;;;;33.88;5.50;;;23.70;99.90;;;;;;5094322;28;20027;-68
2023/10/20 05:01:28;;;;;;;35.70;5.43;;;23.60;99.90;;;;;;5093963;28;20593;-68
2023/10/20 05:03:57;;;;;;;41.33;5.68;;;23.60;99.90;;;;;;5094269;28;20058;-68
2023/10/20 05:06:42;;;;;;;32.10;5.57;;;23.60;99.90;;;;;;5093800;28;20460;-68
2023/10/20 05:09:14;;;;;;;34.78;5.25;;;23.60;99.90;;;;;;5093782;28;20538;-68
2023/10/20 05:11:44;;;;;;;36.25;5.82;;;23.60;99.90;;;;;;5093746;28;20032;-68
2023/10/20 05:14:10;;;;;;;34.90;5.53;;;23.60;99.90;;;;;;5093539;28;20020;-68
2023/10/20 05:16:36;;;;;;;42.33;5.68;;;23.60;99.90;;;;;;5093564;28;20103;-68
2023/10/20 05:19:04;;;;;;;41.28;5.80;;;23.50;99.90;;;;;;5093637;28;20079;-69
2023/10/20 05:21:38;;;;;;;38.78;5.68;;;23.50;99.90;;;;;;5093391;28;20032;-69
2023/10/20 05:24:04;;;;;;;31.58;5.35;;;23.50;99.90;;;;;;5093971;28;20031;-69
2023/10/20 05:26:33;;;;;;;;;;;23.50;99.90;;;;;;5093639;28;20020;-68
2023/10/20 05:29:01;;;;;;;37.45;5.72;;;23.50;99.90;;;;;;5075186;28;19904;-69
2023/10/20 05:31:29;;;;;;;43.22;5.78;;;23.50;99.90;;;;;;5093147;28;20032;-69
2023/10/20 05:33:56;;;;;;;33.80;5.68;;;23.50;99.90;;;;;;5092754;28;20027;-69
2023/10/20 05:36:22;;;;;;;45.33;5.75;;;23.50;99.90;;;;;;5092251;28;20039;-69
2023/10/20 05:38:48;;;;;;;34.70;5.78;;;23.50;99.90;;;;;;5092467;28;20432;-69
2023/10/20 05:41:14;;;;;;;35.35;6.25;;;23.50;99.90;;;;;;5092346;28;20117;-70
2023/10/20 05:43:41;;;;;;;43.95;6.32;;;23.60;99.90;;;;;;5074296;28;20384;-69
2023/10/20 05:46:14;;;;;;;41.35;5.72;;;23.60;99.90;;;;;;5091847;28;20039;-69
2023/10/20 05:48:40;;;;;;;33.47;5.60;;;23.80;99.90;;;;;;5091727;28;20164;-69
2023/10/20 05:51:06;;;;;;;35.03;6.00;;;23.80;99.90;;;;;;5091383;28;20031;-68
2023/10/20 05:53:32;;;;;;;31.00;5.15;;;24.00;99.90;;;;;;5091517;28;20499;-69
2023/10/20 05:55:58;;;;;;;41.33;6.20;;;24.20;99.90;;;;;;5091221;28;20024;-69
2023/10/20 05:58:24;;;;;;;42.17;5.38;;;24.40;99.90;;;;;;5091876;28;20032;-70
2023/10/20 06:00:51;;;;;;;33.47;5.40;;;24.40;99.90;;;;;;5091586;28;20069;-69
2023/10/20 06:03:18;;;;;;;36.63;6.68;;;24.50;99.90;;;;;;5091663;28;20493;-69
2023/10/20 06:05:45;;;;;;;45.22;6.22;;;24.90;99.90;;;;;;5091853;28;20024;-70
2023/10/20 06:08:11;;;;;;;35.42;5.63;;;24.80;99.90;;;;;;5091735;28;20020;-68
2023/10/20 06:10:38;;;;;;;44.78;6.40;;;24.90;99.90;;;;;;5091420;28;20039;-69
2023/10/20 06:13:04;;;;;;;34.38;6.00;;;25.30;99.90;;;;;;5092493;28;20024;-70
2023/10/20 06:15:31;;;;;;;34.22;5.25;;;25.40;99.90;;;;;;5092128;28;20092;-71
2023/10/20 06:17:58;;;;;;;39.03;6.03;;;25.30;99.90;;;;;;5092278;28;20492;-70
2023/10/20 06:20:24;;;;;;;42.05;6.20;;;25.20;99.90;;;;;;5091960;28;20100;-69
2023/10/20 06:22:50;;;;;;;40.40;6.47;;;25.40;99.90;;;;;;5092435;28;20445;-68
2023/10/20 06:25:16;;;;;;;44.65;6.15;;;25.60;99.90;;;;;;5092046;28;20028;-70
2023/10/20 06:27:43;;;;;;;58.95;6.13;;;26.00;99.90;;;;;;5095942;28;20482;-69
2023/10/20 06:30:19;;;;;;;40.63;6.03;;;26.20;99.90;;;;;;5077467;28;20034;-70
2023/10/20 06:32:46;;;;;;;33.53;5.75;;;26.70;99.90;;;;;;5096032;28;20032;-69
2023/10/20 06:35:16;;;;;;;39.08;6.00;;;26.80;99.90;;;;;;5096108;28;20477;-70
2023/10/20 06:37:57;;;;;;;43.80;6.20;;;26.80;99.90;;;;;;5096994;28;20038;-70
2023/10/20 06:40:24;;;;;;;39.08;6.72;;;27.10;99.90;;;;;;5095493;28;20507;-69
2023/10/20 06:42:50;;;;;;;42.25;6.68;;;27.10;99.90;;;;;;5095960;28;20048;-69
2023/10/20 06:45:16;;;;;;;41.67;6.57;;;27.20;99.90;;;;;;5095982;28;20032;-69
2023/10/20 06:47:43;;;;;;;37.33;5.78;;;27.70;99.90;;;;;;5095588;28;20030;-69
2023/10/20 06:50:10;;;;;;;42.70;6.05;;;27.60;99.90;;;;;;5095961;28;20472;-70
2023/10/20 06:52:37;;;;;;;41.90;6.65;;;27.60;99.90;;;;;;5095816;28;20028;-70
2023/10/20 06:55:04;;;;;;;51.22;7.43;;;27.60;99.90;;;;;;5095724;28;20028;-69
2023/10/20 06:57:31;;;;;;;41.45;6.35;;;27.30;99.90;;;;;;5077163;28;20349;-70
2023/10/20 06:59:57;;;;;;;38.30;5.78;;;27.60;99.90;;;;;;5095526;28;20028;-69
2023/10/20 07:02:23;;;;;;;41.65;6.82;;;28.20;99.90;;;;;;5095155;28;20042;-69
2023/10/20 07:04:49;;;;;;;46.63;6.93;;;27.70;99.90;;;;;;5095602;28;20024;-70
2023/10/20 07:07:17;;;;;;;37.35;6.65;;;27.50;99.90;;;;;;5096162;28;20035;-68
2023/10/20 07:09:44;;;;;;;35.38;5.22;;;28.00;99.90;;;;;;5095498;28;20409;-68
2023/10/20 07:12:14;;;;;;;37.38;5.45;;;28.20;99.90;;;;;;5093856;28;20055;-66
2023/10/20 07:14:43;;;;;;;36.60;6.32;;;28.70;99.90;;;;;;5066833;28;20024;-69
2023/10/20 07:17:09;;;;;;;37.78;6.28;;;29.20;99.90;;;;;;5095511;28;20024;-70
2023/10/20 07:19:35;;;;;;;;;;;28.90;99.90;;;;;;5095614;28;20035;-71
2023/10/20 07:22:05;;;;;;;43.83;6.72;;;28.40;99.90;;;;;;5095560;28;19908;-69
2023/10/20 07:24:31;;;;;;;43.45;6.75;;;28.30;99.90;;;;;;5095227;28;20049;-71
2023/10/20 07:26:58;;;;;;;52.25;7.22;;;28.20;99.90;;;;;;5095051;28;20494;-70
2023/10/20 07:29:26;;;;;;;44.78;6.35;;;28.10;99.90;;;;;;5095472;28;20157;-70
2023/10/20 07:31:52;;;;;;;47.92;7.15;;;27.90;99.90;;;;;;5095159;28;20093;-71
2023/10/20 07:34:18;;;;;;;29.25;5.38;;;28.30;99.90;;;;;;5077029;28;20032;-70
2023/10/20 07:36:45;;;;;;;40.30;6.20;;;28.20;99.90;;;;;;5094568;28;20112;-70
2023/10/20 07:39:16;;;;;;;36.17;5.95;;;28.20;99.90;;;;;;5094845;28;20059;-70
2023/10/20 07:41:48;;;;;;;38.85;6.57;;;28.70;99.90;;;;;;5080735;28;20484;-70
2023/10/20 07:44:18;;;;;;;39.80;6.35;;;28.80;99.90;;;;;;5074830;28;20429;-70
2023/10/20 07:46:44;;;;;;;46.33;6.18;;;28.80;99.90;;;;;;5073895;28;20473;-69
2023/10/20 07:49:11;;;;;;;38.80;5.20;;;28.70;99.90;;;;;;5091373;28;20113;-71
2023/10/20 07:51:39;;;;;;;38.40;6.28;;;28.40;99.90;;;;;;5094167;28;20472;-69
2023/10/20 07:54:06;;;;;;;42.13;5.78;;;28.50;99.90;;;;;;5094100;28;20119;-70
2023/10/20 07:56:32;;;;;;;45.15;6.47;;;28.30;99.90;;;;;;5094433;28;20110;-70
2023/10/20 07:58:59;;;;;;;42.83;6.28;;;28.30;99.90;;;;;;5093856;28;20024;-70
2023/10/20 08:01:25;;;;;;;38.25;6.65;;;28.50;99.90;;;;;;5093925;28;20062;-70
2023/10/20 08:03:52;;;;;;;41.53;6.30;;;28.50;99.90;;;;;;5093503;28;20036;-71
2023/10/20 08:06:19;;;;;;;44.47;6.55;;;29.20;99.90;;;;;;5093798;28;20027;-70
2023/10/20 08:08:45;;;;;;;43.53;6.30;;;29.60;99.90;;;;;;5094038;28;20028;-70
2023/10/20 08:11:12;;;;;;;44.97;5.65;;;29.50;99.90;;;;;;5093648;28;20445;-69
2023/10/20 08:13:38;;;;;;;29.50;5.88;;;29.30;99.90;;;;;;5093921;28;20393;-70
2023/10/20 08:16:06;;;;;;;47.28;6.13;;;29.50;99.90;;;;;;5094039;28;20024;-71
2023/10/20 08:18:33;;;;;;;29.67;5.93;;;29.60;99.90;;;;;;5075281;28;20063;-70
2023/10/20 08:21:11;;;;;;;37.72;6.10;;;29.50;99.90;;;;;;5093539;28;20071;-71
2023/10/20 08:23:37;;;;;;;41.35;6.45;;;30.10;99.90;;;;;;5093188;28;20036;-72
2023/10/20 08:26:06;;;;;;;45.88;6.25;;;30.00;99.90;;;;;;5093486;28;20020;-73
2023/10/20 08:28:33;;;;;;;42.58;6.28;;;29.90;99.90;;;;;;5093461;28;20104;-72
2023/10/20 08:31:13;;;;;;;33.15;5.75;;;30.00;99.90;;;;;;5058553;28;20103;-71
2023/10/20 08:33:39;;;;;;;35.85;6.85;;;29.80;99.90;;;;;;5093006;28;20035;-72
2023/10/20 08:36:14;;;;;;;30.50;5.68;;;29.40;99.90;;;;;;5093357;28;20024;-71
2023/10/20 08:38:46;;;;;;;42.47;6.55;;;29.70;99.90;;;;;;5074420;28;20028;-69
2023/10/20 08:41:14;;;;;;;31.70;5.68;;;29.70;99.90;;;;;;5073232;28;20049;-70
2023/10/20 08:43:42;;;;;;;36.58;6.00;;;30.10;99.90;;;;;;5074181;28;20426;-71
2023/10/20 08:46:09;;;;;;;41.40;6.07;;;29.70;99.90;;;;;;5088079;28;20028;-69
2023/10/20 08:48:40;;;;;;;34.72;5.45;;;29.50;99.90;;;;;;5089903;28;20035;-70
2023/10/20 08:51:07;;;;;;;45.95;7.00;;;29.70;99.90;;;;;;5074670;28;20021;-70
2023/10/20 08:53:36;;;;;;;41.40;6.03;;;29.90;99.90;;;;;;5073344;28;20036;-70
2023/10/20 08:56:04;;;;;;;36.08;5.45;;;30.10;99.90;;;;;;5082782;28;20047;-69
2023/10/20 08:58:31;;;;;;;35.45;5.15;;;29.80;99.90;;;;;;5093219;28;20020;-70
2023/10/20 09:00:59;;;;;;;28.42;5.03;;;30.00;99.90;;;;;;5091870;28;20028;-69
2023/10/20 09:03:26;;;;;;;34.63;5.03;;;30.20;99.90;;;;;;5092255;28;20040;-70
2023/10/20 09:06:16;;;;;;;37.95;5.55;;;29.90;99.90;;;;;;5092371;28;20131;-70
2023/10/20 09:08:43;;;;;;;46.50;5.95;;;29.80;99.90;;;;;;5074935;28;20030;-70
2023/10/20 09:11:12;;;;;;;34.55;5.60;;;30.00;99.90;;;;;;5093098;28;20028;-70
2023/10/20 09:13:40;;;;;;;41.83;5.60;;;30.00;99.90;;;;;;5092476;28;20028;-69
2023/10/20 09:16:08;;;;;;;36.65;5.30;;;30.00;99.90;;;;;;5092679;28;20020;-70
2023/10/20 09:18:48;;;;;;;35.28;5.80;;;29.90;99.90;;;;;;5092808;28;20484;-70
2023/10/20 09:21:22;;;;;;;37.75;5.82;;;29.90;99.90;;;;;;5092810;28;20021;-72
2023/10/20 09:24:00;;;;;;;32.10;5.30;;;29.90;99.90;;;;;;5074409;28;20028;-70
2023/10/20 09:26:28;;;;;;;33.22;5.22;;;30.00;99.90;;;;;;5093171;28;20027;-69
2023/10/20 09:28:56;;;;;;;40.80;5.78;;;30.00;99.90;;;;;;5092909;28;20024;-69
2023/10/20 09:31:23;;;;;;;35.65;4.90;;;30.10;99.90;;;;;;5074206;28;20016;-69
2023/10/20 09:33:50;;;;;;;43.03;5.55;;;30.00;99.90;;;;;;5092526;28;20465;-69
2023/10/20 09:36:17;;;;;;;32.58;5.13;;;30.00;99.90;;;;;;5093003;28;20023;-70
2023/10/20 09:38:46;;;;;;;38.95;5.70;;;30.10;99.90;;;;;;5074138;28;20173;-71
2023/10/20 09:41:13;;;;;;;31.25;4.68;;;30.20;99.90;;;;;;5092023;28;20048;-69
2023/10/20 09:43:53;;;;;;;39.05;5.60;;;30.10;99.90;;;;;;5092338;28;20032;-69
2023/10/20 09:46:24;;;;;;;34.30;4.68;;;30.00;99.90;;;;;;5092766;28;20368;-70
2023/10/20 09:48:53;;;;;;;44.13;5.70;;;30.20;99.90;;;;;;5092375;28;20032;-70
2023/10/20 09:51:21;;;;;;;30.55;5.22;;;30.10;99.90;;;;;;5092010;28;20055;-70
2023/10/20 09:53:48;;;;;;;40.97;5.30;;;30.10;99.90;;;;;;5092052;28;20491;-71
2023/10/20 09:56:15;;;;;;;33.00;5.43;;;29.90;99.90;;;;;;5074096;28;20035;-69
2023/10/20 09:58:41;;;;;;;36.88;5.78;;;29.80;99.90;;;;;;5092475;28;20024;-71
2023/10/20 10:01:07;;;;;;;36.63;5.75;;;29.90;99.90;;;;;;5092104;28;20472;-71
2023/10/20 10:03:43;;;;;;;;;;;30.10;99.90;;;;;;5091830;28;20040;-70
2023/10/20 10:06:19;;;;;;;;;;;30.20;99.90;;;;;;5074227;28;19904;-69
2023/10/20 10:08:46;;;;;;;38.65;4.70;;;30.10;99.90;;;;;;5092090;28;19923;-70
2023/10/20 10:11:20;;;;;;;61.17;5.75;;;30.20;99.90;;;;;;5091894;28;20035;-70
2023/10/20 10:13:54;;;;;;;42.42;6.13;;;29.80;99.90;;;;;;5092001;28;20073;-70
2023/10/20 10:16:24;;;;;;;46.53;5.45;;;29.80;99.90;;;;;;5073356;28;20026;-70
2023/10/20 10:18:53;;;;;;;37.08;5.35;;;30.00;99.90;;;;;;5091564;28;20532;-71
2023/10/20 10:21:29;;;;;;;45.25;5.35;;;30.10;99.90;;;;;;5092498;28;20043;-69
2023/10/20 10:24:25;;;;;;;33.38;5.75;;;30.20;99.90;;;;;;5091578;28;20189;-71
2023/10/20 10:27:06;;;;;;;37.50;5.68;;;30.40;99.90;;;;;;5090404;28;20036;-69
2023/10/20 10:29:58;;;;;;;46.42;5.72;;;30.50;99.90;;;;;;5073913;28;20023;-70
2023/10/20 10:32:36;;;;;;;36.38;5.50;;;30.40;99.90;;;;;;5092216;28;20031;-71
2023/10/20 10:35:04;;;;;;;33.05;5.78;;;30.30;99.90;;;;;;5092360;28;20043;-70
2023/10/20 10:37:38;;;;;;;40.63;5.43;;;30.00;99.90;;;;;;5091844;28;20028;-70
2023/10/20 10:40:18;;;;;;;31.20;5.57;;;30.10;99.90;;;;;;5091729;28;20044;-70
2023/10/20 10:42:46;;;;;;;31.67;5.68;;;29.90;99.90;;;;;;5092312;28;20118;-70
2023/10/20 10:45:23;;;;;;;35.33;4.88;;;30.00;99.90;;;;;;5092404;28;20078;-70
2023/10/20 10:47:50;;;;;;;44.65;5.30;;;29.90;99.90;;;;;;5092058;28;20025;-72
2023/10/20 10:50:20;;;;;;;39.83;5.78;;;30.00;99.90;;;;;;5091877;28;20020;-69
2023/10/20 10:52:47;;;;;;;31.85;5.35;;;30.10;99.90;;;;;;5092051;28;20526;-69
2023/10/20 10:55:13;;;;;;;36.05;4.82;;;30.30;99.90;;;;;;5091608;28;20020;-71
2023/10/20 10:57:41;;;;;;;36.17;5.65;;;30.60;99.90;;;;;;5091985;28;20059;-69
2023/10/20 11:00:08;;;;;;;34.45;5.35;;;30.80;99.90;;;;;;5073186;28;20475;-71
2023/10/20 11:02:35;;;;;;;39.47;5.10;;;30.30;99.90;;;;;;5091276;28;20114;-71
2023/10/20 11:05:02;;;;;;;40.38;5.32;;;30.40;99.90;;;;;;5073103;28;20027;-70
2023/10/20 11:07:28;;;;;;;45.83;5.63;;;30.80;99.90;;;;;;5073456;28;20392;-71
2023/10/20 11:09:55;;;;;;;45.22;5.18;;;30.60;99.90;;;;;;5091895;28;20023;-69
2023/10/20 11:12:24;;;;;;;41.53;5.10;;;29.90;99.90;;;;;;5074865;28;20032;-70
2023/10/20 11:14:50;;;;;;;33.88;4.70;;;29.90;99.90;;;;;;5095534;28;20051;-70
2023/10/20 11:17:16;;;;;;;38.22;4.93;;;29.80;99.90;;;;;;5095610;28;20028;-70
2023/10/20 11:19:44;;;;;;;62.72;6.32;;;29.70;99.90;;;;;;5095306;28;20067;-69
2023/10/20 11:22:16;;;;;;;24.85;4.63;;;29.90;99.90;;;;;;5077214;28;20047;-69
2023/10/20 11:24:49;;;;;;;36.05;5.22;;;30.20;99.90;;;;;;5095649;28;20036;-71
2023/10/20 11:27:15;;;;;;;26.52;4.93;;;29.90;99.90;;;;;;5095278;28;20360;-70
2023/10/20 11:29:42;;;;;;;37.38;5.75;;;29.70;99.90;;;;;;5095409;28;20073;-69
2023/10/20 11:32:13;;;;;;;39.22;5.20;;;29.30;99.90;;;;;;5095308;28;20093;-69
2023/10/20 11:34:40;;;;;;;30.33;5.65;;;29.60;99.90;;;;;;5095661;28;20028;-70
2023/10/20 11:37:07;;;;;;;33.88;5.18;;;30.10;99.90;;;;;;5095524;28;20499;-70
2023/10/20 11:39:36;;;;;;;35.10;5.03;;;30.00;99.90;;;;;;5095051;28;20016;-69
2023/10/20 11:42:03;;;;;;;58.88;6.85;;;29.50;99.90;;;;;;5095348;28;20028;-70
2023/10/20 11:44:29;;;;;;;53.03;6.13;;;29.60;99.90;;;;;;5095097;28;20039;-70
2023/10/20 11:46:56;;;;;;;48.40;5.82;;;29.70;99.90;;;;;;5095101;28;20145;-69
2023/10/20 11:49:23;;;;;;;;;;;29.60;99.90;;;;;;5095166;28;20024;-70
2023/10/20 11:51:49;;;;;;;47.67;7.40;;;29.60;99.90;;;;;;5094236;28;20283;-69
2023/10/20 11:54:15;;;;;;;59.78;8.95;;;29.50;99.90;;;;;;5093665;28;20112;-69
2023/10/20 11:56:43;;;;;;;35.60;7.68;;;29.50;99.90;;;;;;5093752;28;20036;-68
2023/10/20 11:59:10;;;;;;;52.47;9.70;;;29.50;99.90;;;;;;5094126;28;20376;-70
2023/10/20 12:01:36;;;;;;;60.50;14.10;;;29.40;99.90;;;;;;5075093;28;20024;-69
2023/10/20 12:04:06;;;;;;;48.90;10.77;;;29.30;99.90;;;;;;5093782;28;20031;-71
2023/10/20 12:06:36;;;;;;;30.35;6.72;;;29.20;99.90;;;;;;5094148;28;20020;-70
2023/10/20 12:09:07;;;;;;;45.92;9.38;;;29.40;99.90;;;;;;5094731;28;20047;-70
2023/10/20 12:11:37;;;;;;;49.33;8.23;;;29.30;99.90;;;;;;5094372;28;20020;-70
2023/10/20 12:14:04;;;;;;;43.38;7.22;;;29.40;99.90;;;;;;5094573;28;20032;-70
2023/10/20 12:16:30;;;;;;;39.90;7.15;;;29.60;99.90;;;;;;5094117;28;20024;-71
2023/10/20 12:19:02;;;;;;;32.92;5.85;;;29.70;99.90;;;;;;5094699;28;20089;-69
2023/10/20 12:21:29;;;;;;;37.40;6.20;;;29.50;99.90;;;;;;5078076;28;20089;-70
2023/10/20 12:23:56;;;;;;;51.53;6.55;;;29.60;99.90;;;;;;5076524;28;20040;-70
2023/10/20 12:26:22;;;;;;;37.63;5.97;;;29.60;99.90;;;;;;5076386;28;20034;-70
2023/10/20 12:28:51;;;;;;;41.17;5.93;;;29.60;99.90;;;;;;5094647;28;20012;-70
2023/10/20 12:31:18;;;;;;;34.25;6.25;;;29.60;99.90;;;;;;5094962;28;20114;-70
2023/10/20 12:33:45;;;;;;;30.27;5.18;;;29.90;99.90;;;;;;5076170;28;20541;-70
2023/10/20 12:36:16;;;;;;;38.45;5.63;;;29.70;99.90;;;;;;5076200;28;20350;-69
2023/10/20 12:38:43;;;;;;;41.60;6.20;;;29.40;99.90;;;;;;5076209;28;20031;-69
2023/10/20 12:41:14;;;;;;;40.85;5.43;;;29.50;99.90;;;;;;5094301;28;20059;-69
2023/10/20 12:43:41;;;;;;;30.63;5.47;;;29.30;99.90;;;;;;5094852;28;20032;-69
2023/10/20 12:46:11;;;;;;;47.10;6.10;;;29.60;99.90;;;;;;5076213;28;20175;-69
2023/10/20 12:48:38;;;;;;;38.13;5.40;;;29.30;99.90;;;;;;5093422;28;20020;-70
2023/10/20 12:51:08;;;;;;;35.13;6.05;;;29.10;99.90;;;;;;5093513;28;20099;-69
2023/10/20 12:53:35;;;;;;;43.88;5.80;;;29.00;99.90;;;;;;5075134;28;20084;-69
2023/10/20 12:56:01;;;;;;;45.83;6.18;;;29.00;99.90;;;;;;5093465;28;20024;-69
2023/10/20 12:58:27;;;;;;;45.55;5.55;;;29.00;99.90;;;;;;5093390;28;20480;-70
2023/10/20 13:00:53;;;;;;;34.97;5.93;;;29.00;99.90;;;;;;5075110;28;20032;-70
2023/10/20 13:03:19;;;;;;;48.97;6.03;;;29.20;99.90;;;;;;5074907;28;20036;-69
2023/10/20 13:05:45;;;;;;;35.97;5.55;;;29.20;99.90;;;;;;5093690;28;20526;-69
2023/10/20 13:08:14;;;;;;;38.83;5.57;;;29.30;99.90;;;;;;5093226;28;20028;-69
2023/10/20 13:10:45;;;;;;;38.63;5.57;;;29.60;99.90;;;;;;5093535;28;20020;-69
2023/10/20 13:13:11;;;;;;;30.67;4.95;;;29.70;99.90;;;;;;5093601;28;20400;-70
2023/10/20 13:15:37;;;;;;;31.02;4.88;;;29.50;99.90;;;;;;5093514;28;20071;-69